sim
Sign-in with your pilot id or email,
or register
Callsign
Passwort

Schedule Details

Flight Number: DLH1652
Departure: Munich Airport (EDDM) at 08:00
Arrival: Bucharest Henri Coanda International Airport (LROP) at 09:55
Route: Lufthansa Passenger Schedule. Enter filed route here before submitting Pirep.

Weather Information
Getting current METAR information for EDDM 210120Z 25004KT CAVOK 09/08 Q1016 NOSIG
Getting current METAR information for LROP 210130Z 01003KT CAVOK 11/07 Q1021 NOSIG

Schedule Frequency

Route Map